sensor_id;sensor_type;location;lat;lon;timestamp;temperature;humidity
36372;DHT22;22398;51.346;12.372;2023-05-31T00:00:50;13.60;60.10
36372;DHT22;22398;51.346;12.372;2023-05-31T00:05:55;13.50;60.20
36372;DHT22;22398;51.346;12.372;2023-05-31T00:10:58;13.40;60.40
36372;DHT22;22398;51.346;12.372;2023-05-31T00:16:02;13.30;60.50
36372;DHT22;22398;51.346;12.372;2023-05-31T00:21:12;13.30;60.80
36372;DHT22;22398;51.346;12.372;2023-05-31T00:26:15;13.20;60.80
36372;DHT22;22398;51.346;12.372;2023-05-31T00:31:20;13.20;61.00
36372;DHT22;22398;51.346;12.372;2023-05-31T00:36:26;13.10;61.20
36372;DHT22;22398;51.346;12.372;2023-05-31T00:41:29;13.10;61.30
36372;DHT22;22398;51.346;12.372;2023-05-31T00:46:36;12.90;61.30
36372;DHT22;22398;51.346;12.372;2023-05-31T00:51:42;12.80;61.60
36372;DHT22;22398;51.346;12.372;2023-05-31T00:56:45;12.80;61.80
36372;DHT22;22398;51.346;12.372;2023-05-31T01:01:51;12.70;62.00
36372;DHT22;22398;51.346;12.372;2023-05-31T01:06:59;12.60;62.20
36372;DHT22;22398;51.346;12.372;2023-05-31T01:12:11;12.60;62.40
36372;DHT22;22398;51.346;12.372;2023-05-31T01:17:21;12.50;62.50
36372;DHT22;22398;51.346;12.372;2023-05-31T01:22:35;12.40;62.80
36372;DHT22;22398;51.346;12.372;2023-05-31T01:27:45;12.40;63.10
36372;DHT22;22398;51.346;12.372;2023-05-31T01:32:50;12.30;63.30
36372;DHT22;22398;51.346;12.372;2023-05-31T01:37:55;12.20;63.60
36372;DHT22;22398;51.346;12.372;2023-05-31T01:43:03;12.10;63.80
36372;DHT22;22398;51.346;12.372;2023-05-31T01:48:08;12.00;64.10
36372;DHT22;22398;51.346;12.372;2023-05-31T01:53:13;12.00;64.50
36372;DHT22;22398;51.346;12.372;2023-05-31T01:58:19;11.90;64.80
36372;DHT22;22398;51.346;12.372;2023-05-31T02:03:24;12.00;65.20
36372;DHT22;22398;51.346;12.372;2023-05-31T02:08:28;11.90;65.40
36372;DHT22;22398;51.346;12.372;2023-05-31T02:13:33;11.80;65.60
36372;DHT22;22398;51.346;12.372;2023-05-31T02:18:38;11.80;66.00
36372;DHT22;22398;51.346;12.372;2023-05-31T02:23:41;11.80;66.30
36372;DHT22;22398;51.346;12.372;2023-05-31T02:28:46;11.80;66.50
36372;DHT22;22398;51.346;12.372;2023-05-31T02:33:51;11.70;66.80
36372;DHT22;22398;51.346;12.372;2023-05-31T02:38:55;11.70;67.30
36372;DHT22;22398;51.346;12.372;2023-05-31T02:44:00;11.70;67.60
36372;DHT22;22398;51.346;12.372;2023-05-31T02:49:03;11.70;67.90
36372;DHT22;22398;51.346;12.372;2023-05-31T02:54:08;11.60;68.10
36372;DHT22;22398;51.346;12.372;2023-05-31T02:59:13;11.60;68.40
36372;DHT22;22398;51.346;12.372;2023-05-31T03:04:17;11.50;68.70
36372;DHT22;22398;51.346;12.372;2023-05-31T03:09:21;11.40;69.00
36372;DHT22;22398;51.346;12.372;2023-05-31T03:14:27;11.40;69.30
36372;DHT22;22398;51.346;12.372;2023-05-31T03:19:30;11.40;69.60
36372;DHT22;22398;51.346;12.372;2023-05-31T03:24:36;11.40;70.00
36372;DHT22;22398;51.346;12.372;2023-05-31T03:29:42;11.40;70.10
36372;DHT22;22398;51.346;12.372;2023-05-31T03:34:46;11.40;70.40
36372;DHT22;22398;51.346;12.372;2023-05-31T03:39:50;11.40;70.60
36372;DHT22;22398;51.346;12.372;2023-05-31T03:45:01;11.40;70.90
36372;DHT22;22398;51.346;12.372;2023-05-31T03:50:05;11.40;71.00
36372;DHT22;22398;51.346;12.372;2023-05-31T03:55:09;11.50;71.30
36372;DHT22;22398;51.346;12.372;2023-05-31T04:00:16;11.50;71.50
36372;DHT22;22398;51.346;12.372;2023-05-31T04:05:25;11.50;71.70
36372;DHT22;22398;51.346;12.372;2023-05-31T04:10:30;11.60;71.90
36372;DHT22;22398;51.346;12.372;2023-05-31T04:15:35;11.60;72.00
36372;DHT22;22398;51.346;12.372;2023-05-31T04:20:39;11.70;72.10
36372;DHT22;22398;51.346;12.372;2023-05-31T04:25:43;11.80;72.10
36372;DHT22;22398;51.346;12.372;2023-05-31T04:30:49;11.90;72.30
36372;DHT22;22398;51.346;12.372;2023-05-31T04:35:55;12.10;72.30
36372;DHT22;22398;51.346;12.372;2023-05-31T04:40:59;12.20;72.20
36372;DHT22;22398;51.346;12.372;2023-05-31T04:46:05;12.20;72.10
36372;DHT22;22398;51.346;12.372;2023-05-31T04:51:13;12.30;72.10
36372;DHT22;22398;51.346;12.372;2023-05-31T04:56:17;14.10;74.10
36372;DHT22;22398;51.346;12.372;2023-05-31T05:01:22;17.20;69.00
36372;DHT22;22398;51.346;12.372;2023-05-31T05:06:37;19.20;64.60
36372;DHT22;22398;51.346;12.372;2023-05-31T05:11:43;20.80;60.80
36372;DHT22;22398;51.346;12.372;2023-05-31T05:16:49;21.80;57.40
36372;DHT22;22398;51.346;12.372;2023-05-31T05:21:52;19.50;56.10
36372;DHT22;22398;51.346;12.372;2023-05-31T05:26:57;17.40;58.40
36372;DHT22;22398;51.346;12.372;2023-05-31T05:32:03;16.10;60.30
36372;DHT22;22398;51.346;12.372;2023-05-31T05:37:07;15.40;61.90
36372;DHT22;22398;51.346;12.372;2023-05-31T05:42:11;15.00;63.00
36372;DHT22;22398;51.346;12.372;2023-05-31T05:47:16;14.70;63.80
36372;DHT22;22398;51.346;12.372;2023-05-31T05:52:24;14.70;64.60
36372;DHT22;22398;51.346;12.372;2023-05-31T05:57:28;14.80;65.00
36372;DHT22;22398;51.346;12.372;2023-05-31T06:02:44;14.90;65.20
36372;DHT22;22398;51.346;12.372;2023-05-31T06:07:48;15.00;65.30
36372;DHT22;22398;51.346;12.372;2023-05-31T06:12:52;15.20;65.40
36372;DHT22;22398;51.346;12.372;2023-05-31T06:17:58;15.30;65.50
36372;DHT22;22398;51.346;12.372;2023-05-31T06:23:01;15.40;65.50
36372;DHT22;22398;51.346;12.372;2023-05-31T06:28:05;15.60;65.50
36372;DHT22;22398;51.346;12.372;2023-05-31T06:33:09;15.70;65.50
36372;DHT22;22398;51.346;12.372;2023-05-31T06:38:13;15.80;65.50
36372;DHT22;22398;51.346;12.372;2023-05-31T06:43:21;16.00;65.40
36372;DHT22;22398;51.346;12.372;2023-05-31T06:48:44;16.10;65.30
36372;DHT22;22398;51.346;12.372;2023-05-31T06:54:06;16.20;65.10
36372;DHT22;22398;51.346;12.372;2023-05-31T06:59:11;16.40;65.00
36372;DHT22;22398;51.346;12.372;2023-05-31T07:04:16;16.60;64.80
36372;DHT22;22398;51.346;12.372;2023-05-31T07:09:19;16.80;64.60
36372;DHT22;22398;51.346;12.372;2023-05-31T07:14:30;16.90;64.40
36372;DHT22;22398;51.346;12.372;2023-05-31T07:19:42;17.10;64.10
36372;DHT22;22398;51.346;12.372;2023-05-31T07:24:46;17.30;63.60
36372;DHT22;22398;51.346;12.372;2023-05-31T07:29:49;17.60;63.20
36372;DHT22;22398;51.346;12.372;2023-05-31T07:34:54;17.90;62.80
36372;DHT22;22398;51.346;12.372;2023-05-31T07:40:06;18.10;62.20
36372;DHT22;22398;51.346;12.372;2023-05-31T07:45:10;18.40;61.80
36372;DHT22;22398;51.346;12.372;2023-05-31T07:50:15;18.80;61.20
36372;DHT22;22398;51.346;12.372;2023-05-31T07:55:19;19.10;60.60
36372;DHT22;22398;51.346;12.372;2023-05-31T08:00:23;19.40;59.90
36372;DHT22;22398;51.346;12.372;2023-05-31T08:05:31;19.70;59.50
36372;DHT22;22398;51.346;12.372;2023-05-31T08:10:35;20.10;58.90
36372;DHT22;22398;51.346;12.372;2023-05-31T08:15:38;20.70;58.00
36372;DHT22;22398;51.346;12.372;2023-05-31T08:20:43;21.00;57.10
36372;DHT22;22398;51.346;12.372;2023-05-31T08:25:47;21.40;56.50
36372;DHT22;22398;51.346;12.372;2023-05-31T08:30:53;21.70;55.90
36372;DHT22;22398;51.346;12.372;2023-05-31T08:35:58;21.70;55.60
36372;DHT22;22398;51.346;12.372;2023-05-31T08:41:05;21.60;55.60
36372;DHT22;22398;51.346;12.372;2023-05-31T08:46:10;21.90;56.30
36372;DHT22;22398;51.346;12.372;2023-05-31T08:51:15;22.00;55.30
36372;DHT22;22398;51.346;12.372;2023-05-31T08:56:19;21.60;55.10
36372;DHT22;22398;51.346;12.372;2023-05-31T09:01:24;21.60;55.00
36372;DHT22;22398;51.346;12.372;2023-05-31T09:06:32;21.60;55.40
36372;DHT22;22398;51.346;12.372;2023-05-31T09:11:36;22.20;55.10
36372;DHT22;22398;51.346;12.372;2023-05-31T09:16:42;22.60;54.50
36372;DHT22;22398;51.346;12.372;2023-05-31T09:21:47;22.80;54.00
36372;DHT22;22398;51.346;12.372;2023-05-31T09:26:52;22.80;53.40
36372;DHT22;22398;51.346;12.372;2023-05-31T09:32:07;22.60;52.70
36372;DHT22;22398;51.346;12.372;2023-05-31T09:37:21;22.90;52.40
36372;DHT22;22398;51.346;12.372;2023-05-31T09:42:25;23.50;52.00
36372;DHT22;22398;51.346;12.372;2023-05-31T09:47:31;23.70;51.50
36372;DHT22;22398;51.346;12.372;2023-05-31T09:52:36;24.00;50.60
36372;DHT22;22398;51.346;12.372;2023-05-31T09:57:41;24.20;50.20
36372;DHT22;22398;51.346;12.372;2023-05-31T10:02:47;24.10;48.60
36372;DHT22;22398;51.346;12.372;2023-05-31T10:07:52;24.10;48.50
36372;DHT22;22398;51.346;12.372;2023-05-31T10:12:57;24.10;48.40
36372;DHT22;22398;51.346;12.372;2023-05-31T10:18:09;23.90;47.60
36372;DHT22;22398;51.346;12.372;2023-05-31T10:23:20;23.80;47.60
36372;DHT22;22398;51.346;12.372;2023-05-31T10:28:27;24.00;47.40
36372;DHT22;22398;51.346;12.372;2023-05-31T10:33:34;24.30;47.30
36372;DHT22;22398;51.346;12.372;2023-05-31T10:38:45;24.30;47.00
36372;DHT22;22398;51.346;12.372;2023-05-31T10:43:55;24.00;47.00
36372;DHT22;22398;51.346;12.372;2023-05-31T10:49:02;24.00;47.20
36372;DHT22;22398;51.346;12.372;2023-05-31T10:54:17;24.10;47.10
36372;DHT22;22398;51.346;12.372;2023-05-31T10:59:22;23.90;46.70
36372;DHT22;22398;51.346;12.372;2023-05-31T11:04:26;23.90;47.00
36372;DHT22;22398;51.346;12.372;2023-05-31T11:09:31;23.90;46.70
36372;DHT22;22398;51.346;12.372;2023-05-31T11:14:35;23.90;46.50
36372;DHT22;22398;51.346;12.372;2023-05-31T11:19:39;23.80;46.40
36372;DHT22;22398;51.346;12.372;2023-05-31T11:24:53;23.90;46.60
36372;DHT22;22398;51.346;12.372;2023-05-31T11:29:59;24.00;46.30
36372;DHT22;22398;51.346;12.372;2023-05-31T11:35:05;23.80;46.30
36372;DHT22;22398;51.346;12.372;2023-05-31T11:40:14;23.80;46.50
36372;DHT22;22398;51.346;12.372;2023-05-31T11:45:18;23.80;46.50
36372;DHT22;22398;51.346;12.372;2023-05-31T11:50:26;23.90;46.50
36372;DHT22;22398;51.346;12.372;2023-05-31T11:55:32;23.90;46.50
36372;DHT22;22398;51.346;12.372;2023-05-31T12:00:43;23.80;46.40
36372;DHT22;22398;51.346;12.372;2023-05-31T12:05:50;23.70;46.60
36372;DHT22;22398;51.346;12.372;2023-05-31T12:11:00;23.90;46.70
36372;DHT22;22398;51.346;12.372;2023-05-31T12:16:05;24.00;46.70
36372;DHT22;22398;51.346;12.372;2023-05-31T12:21:10;24.10;46.30
36372;DHT22;22398;51.346;12.372;2023-05-31T12:26:19;24.10;46.00
36372;DHT22;22398;51.346;12.372;2023-05-31T12:31:25;24.30;46.30
36372;DHT22;22398;51.346;12.372;2023-05-31T12:36:42;24.40;45.70
36372;DHT22;22398;51.346;12.372;2023-05-31T12:41:48;24.30;45.30
36372;DHT22;22398;51.346;12.372;2023-05-31T12:46:58;24.30;45.60
36372;DHT22;22398;51.346;12.372;2023-05-31T12:52:06;24.40;45.40
36372;DHT22;22398;51.346;12.372;2023-05-31T12:57:12;24.40;45.40
36372;DHT22;22398;51.346;12.372;2023-05-31T13:02:15;24.30;45.40
36372;DHT22;22398;51.346;12.372;2023-05-31T13:07:19;24.60;45.40
36372;DHT22;22398;51.346;12.372;2023-05-31T13:12:23;24.90;45.30
36372;DHT22;22398;51.346;12.372;2023-05-31T13:17:26;25.00;45.10
36372;DHT22;22398;51.346;12.372;2023-05-31T13:22:30;25.10;45.00
36372;DHT22;22398;51.346;12.372;2023-05-31T13:27:35;25.10;44.90
36372;DHT22;22398;51.346;12.372;2023-05-31T13:32:38;25.20;44.90
36372;DHT22;22398;51.346;12.372;2023-05-31T13:37:42;25.30;45.20
36372;DHT22;22398;51.346;12.372;2023-05-31T13:42:46;25.40;44.70
36372;DHT22;22398;51.346;12.372;2023-05-31T13:47:52;25.30;44.30
36372;DHT22;22398;51.346;12.372;2023-05-31T13:52:56;25.50;44.50
36372;DHT22;22398;51.346;12.372;2023-05-31T13:58:01;25.80;44.20
36372;DHT22;22398;51.346;12.372;2023-05-31T14:03:05;25.90;43.90
36372;DHT22;22398;51.346;12.372;2023-05-31T14:08:09;26.40;44.00
36372;DHT22;22398;51.346;12.372;2023-05-31T14:13:14;26.90;43.70
36372;DHT22;22398;51.346;12.372;2023-05-31T14:18:17;27.00;43.00
36372;DHT22;22398;51.346;12.372;2023-05-31T14:23:21;26.70;42.70
36372;DHT22;22398;51.346;12.372;2023-05-31T14:28:26;26.50;42.60
36372;DHT22;22398;51.346;12.372;2023-05-31T14:33:31;26.60;42.70
36372;DHT22;22398;51.346;12.372;2023-05-31T14:38:35;26.60;42.80
36372;DHT22;22398;51.346;12.372;2023-05-31T14:43:40;26.30;42.60
36372;DHT22;22398;51.346;12.372;2023-05-31T14:48:44;26.00;42.40
36372;DHT22;22398;51.346;12.372;2023-05-31T14:53:48;25.90;42.40
36372;DHT22;22398;51.346;12.372;2023-05-31T14:58:55;25.90;42.40
36372;DHT22;22398;51.346;12.372;2023-05-31T15:03:58;26.20;42.50
36372;DHT22;22398;51.346;12.372;2023-05-31T15:09:04;26.20;42.20
36372;DHT22;22398;51.346;12.372;2023-05-31T15:14:12;26.40;42.30
36372;DHT22;22398;51.346;12.372;2023-05-31T15:19:16;26.40;42.10
36372;DHT22;22398;51.346;12.372;2023-05-31T15:24:19;26.30;41.90
36372;DHT22;22398;51.346;12.372;2023-05-31T15:29:24;26.00;41.80
36372;DHT22;22398;51.346;12.372;2023-05-31T15:34:28;25.60;42.00
36372;DHT22;22398;51.346;12.372;2023-05-31T15:39:32;25.40;42.20
36372;DHT22;22398;51.346;12.372;2023-05-31T15:44:37;25.40;42.10
36372;DHT22;22398;51.346;12.372;2023-05-31T15:49:41;25.60;42.10
36372;DHT22;22398;51.346;12.372;2023-05-31T15:54:44;26.00;42.10
36372;DHT22;22398;51.346;12.372;2023-05-31T15:59:49;26.30;41.60
36372;DHT22;22398;51.346;12.372;2023-05-31T16:04:53;26.60;41.60
36372;DHT22;22398;51.346;12.372;2023-05-31T16:09:57;26.60;41.00
36372;DHT22;22398;51.346;12.372;2023-05-31T16:15:02;26.70;40.30
36372;DHT22;22398;51.346;12.372;2023-05-31T16:20:07;26.70;40.70
36372;DHT22;22398;51.346;12.372;2023-05-31T16:25:10;27.60;40.70
36372;DHT22;22398;51.346;12.372;2023-05-31T16:30:15;28.10;40.00
36372;DHT22;22398;51.346;12.372;2023-05-31T16:35:19;28.50;39.30
36372;DHT22;22398;51.346;12.372;2023-05-31T16:40:22;28.60;39.20
36372;DHT22;22398;51.346;12.372;2023-05-31T16:45:27;28.80;39.30
36372;DHT22;22398;51.346;12.372;2023-05-31T16:50:31;28.90;39.10
36372;DHT22;22398;51.346;12.372;2023-05-31T16:55:35;28.60;39.50
36372;DHT22;22398;51.346;12.372;2023-05-31T17:00:40;27.90;40.10
36372;DHT22;22398;51.346;12.372;2023-05-31T17:05:44;27.60;40.50
36372;DHT22;22398;51.346;12.372;2023-05-31T17:10:49;27.50;40.90
36372;DHT22;22398;51.346;12.372;2023-05-31T17:15:54;27.70;40.90
36372;DHT22;22398;51.346;12.372;2023-05-31T17:20:58;28.20;41.00
36372;DHT22;22398;51.346;12.372;2023-05-31T17:26:01;28.50;40.70
36372;DHT22;22398;51.346;12.372;2023-05-31T17:31:06;28.40;40.90
36372;DHT22;22398;51.346;12.372;2023-05-31T17:36:09;28.30;40.90
36372;DHT22;22398;51.346;12.372;2023-05-31T17:41:13;28.20;40.70
36372;DHT22;22398;51.346;12.372;2023-05-31T17:46:22;28.00;40.90
36372;DHT22;22398;51.346;12.372;2023-05-31T17:51:25;27.80;40.90
36372;DHT22;22398;51.346;12.372;2023-05-31T17:56:29;27.50;41.20
36372;DHT22;22398;51.346;12.372;2023-05-31T18:01:33;27.40;41.60
36372;DHT22;22398;51.346;12.372;2023-05-31T18:06:40;27.40;41.60
36372;DHT22;22398;51.346;12.372;2023-05-31T18:11:43;27.30;41.60
36372;DHT22;22398;51.346;12.372;2023-05-31T18:16:48;27.20;41.90
36372;DHT22;22398;51.346;12.372;2023-05-31T18:21:52;27.10;42.10
36372;DHT22;22398;51.346;12.372;2023-05-31T18:27:14;26.90;42.20
36372;DHT22;22398;51.346;12.372;2023-05-31T18:32:19;26.50;42.40
36372;DHT22;22398;51.346;12.372;2023-05-31T18:37:23;26.10;42.60
36372;DHT22;22398;51.346;12.372;2023-05-31T18:42:27;25.30;43.00
36372;DHT22;22398;51.346;12.372;2023-05-31T18:47:32;24.40;43.80
36372;DHT22;22398;51.346;12.372;2023-05-31T18:52:35;23.70;44.80
36372;DHT22;22398;51.346;12.372;2023-05-31T18:57:39;23.20;45.70
36372;DHT22;22398;51.346;12.372;2023-05-31T19:02:44;22.60;46.50
36372;DHT22;22398;51.346;12.372;2023-05-31T19:07:48;22.30;47.30
36372;DHT22;22398;51.346;12.372;2023-05-31T19:12:51;21.90;47.90
36372;DHT22;22398;51.346;12.372;2023-05-31T19:17:56;21.50;48.50
36372;DHT22;22398;51.346;12.372;2023-05-31T19:23:11;21.20;49.10
36372;DHT22;22398;51.346;12.372;2023-05-31T19:28:15;20.90;49.70
36372;DHT22;22398;51.346;12.372;2023-05-31T19:33:20;20.70;50.30
36372;DHT22;22398;51.346;12.372;2023-05-31T19:38:23;20.50;50.70
36372;DHT22;22398;51.346;12.372;2023-05-31T19:43:30;20.30;51.10
36372;DHT22;22398;51.346;12.372;2023-05-31T19:48:35;20.00;51.50
36372;DHT22;22398;51.346;12.372;2023-05-31T19:53:39;19.80;51.90
36372;DHT22;22398;51.346;12.372;2023-05-31T19:58:43;19.60;52.40
36372;DHT22;22398;51.346;12.372;2023-05-31T20:03:49;19.40;52.80
36372;DHT22;22398;51.346;12.372;2023-05-31T20:08:53;19.20;53.20
36372;DHT22;22398;51.346;12.372;2023-05-31T20:13:57;19.00;53.40
36372;DHT22;22398;51.346;12.372;2023-05-31T20:19:02;18.80;53.70
36372;DHT22;22398;51.346;12.372;2023-05-31T20:24:06;18.70;54.10
36372;DHT22;22398;51.346;12.372;2023-05-31T20:29:10;18.50;54.50
36372;DHT22;22398;51.346;12.372;2023-05-31T20:34:15;18.40;54.80
36372;DHT22;22398;51.346;12.372;2023-05-31T20:39:18;18.30;55.00
36372;DHT22;22398;51.346;12.372;2023-05-31T20:44:22;18.20;55.50
36372;DHT22;22398;51.346;12.372;2023-05-31T20:49:26;18.10;55.90
36372;DHT22;22398;51.346;12.372;2023-05-31T20:54:30;17.90;56.20
36372;DHT22;22398;51.346;12.372;2023-05-31T20:59:34;17.70;56.30
36372;DHT22;22398;51.346;12.372;2023-05-31T21:04:38;17.70;56.60
36372;DHT22;22398;51.346;12.372;2023-05-31T21:09:42;17.60;56.60
36372;DHT22;22398;51.346;12.372;2023-05-31T21:14:46;17.60;56.70
36372;DHT22;22398;51.346;12.372;2023-05-31T21:19:51;17.60;56.80
36372;DHT22;22398;51.346;12.372;2023-05-31T21:24:55;17.50;57.10
36372;DHT22;22398;51.346;12.372;2023-05-31T21:29:58;17.40;57.30
36372;DHT22;22398;51.346;12.372;2023-05-31T21:35:03;17.30;57.40
36372;DHT22;22398;51.346;12.372;2023-05-31T21:40:07;17.30;57.70
36372;DHT22;22398;51.346;12.372;2023-05-31T21:45:10;17.20;57.90
36372;DHT22;22398;51.346;12.372;2023-05-31T21:50:15;17.00;58.00
36372;DHT22;22398;51.346;12.372;2023-05-31T21:55:18;16.90;58.30
36372;DHT22;22398;51.346;12.372;2023-05-31T22:00:22;16.70;58.70
36372;DHT22;22398;51.346;12.372;2023-05-31T22:05:26;16.70;58.90
36372;DHT22;22398;51.346;12.372;2023-05-31T22:10:30;16.60;59.10
36372;DHT22;22398;51.346;12.372;2023-05-31T22:15:33;16.50;59.30
36372;DHT22;22398;51.346;12.372;2023-05-31T22:20:38;16.50;59.50
36372;DHT22;22398;51.346;12.372;2023-05-31T22:25:41;16.50;60.10
36372;DHT22;22398;51.346;12.372;2023-05-31T22:30:44;16.40;59.70
36372;DHT22;22398;51.346;12.372;2023-05-31T22:35:49;16.40;59.90
36372;DHT22;22398;51.346;12.372;2023-05-31T22:40:52;16.40;60.00
36372;DHT22;22398;51.346;12.372;2023-05-31T22:45:56;16.30;60.10
36372;DHT22;22398;51.346;12.372;2023-05-31T22:51:00;16.30;60.20
36372;DHT22;22398;51.346;12.372;2023-05-31T22:56:05;16.20;60.40
36372;DHT22;22398;51.346;12.372;2023-05-31T23:01:09;16.20;60.60
36372;DHT22;22398;51.346;12.372;2023-05-31T23:06:14;16.10;60.80
36372;DHT22;22398;51.346;12.372;2023-05-31T23:11:17;16.10;61.30
36372;DHT22;22398;51.346;12.372;2023-05-31T23:16:23;16.10;61.20
36372;DHT22;22398;51.346;12.372;2023-05-31T23:21:28;16.00;61.50
36372;DHT22;22398;51.346;12.372;2023-05-31T23:26:32;16.00;61.90
36372;DHT22;22398;51.346;12.372;2023-05-31T23:31:35;15.90;62.20
36372;DHT22;22398;51.346;12.372;2023-05-31T23:36:40;15.70;62.40
36372;DHT22;22398;51.346;12.372;2023-05-31T23:41:43;15.60;62.80
36372;DHT22;22398;51.346;12.372;2023-05-31T23:46:47;15.60;63.20
36372;DHT22;22398;51.346;12.372;2023-05-31T23:51:51;15.40;63.50
36372;DHT22;22398;51.346;12.372;2023-05-31T23:56:54;15.30;63.80
